Time;durP1;ratioP1;P1;durP2;ratioP2;P2;SDS_P1;SDS_P2;PMS_P1;PMS_P2;Temp;Humidity;BMP_temperature;BMP_pressure;BME280_temperature;BME280_humidity;BME280_pressure;Samples;Min_cycle;Max_cycle;Signal;HPM_P1;HPM_P2
2023/02/07 00:00:59;;;;;;;19.65;5.65;;;0.20;99.90;;;;;;5030556;28;20103;-87
2023/02/07 00:03:25;;;;;;;23.98;6.10;;;0.20;99.90;;;;;;5021061;28;20025;-87
2023/02/07 00:05:50;;;;;;;19.88;6.65;;;0.20;99.90;;;;;;5024045;28;20033;-87
2023/02/07 00:08:16;;;;;;;28.70;6.95;;;0.20;99.90;;;;;;5032086;28;20018;-87
2023/02/07 00:10:41;;;;;;;22.42;7.57;;;0.20;99.90;;;;;;5031714;28;20032;-87
2023/02/07 00:13:07;;;;;;;32.80;7.25;;;0.20;99.90;;;;;;5019849;28;20048;-87
2023/02/07 00:15:32;;;;;;;30.70;7.82;;;0.30;99.90;;;;;;5026744;28;20021;-87
2023/02/07 00:17:58;;;;;;;22.75;7.57;;;0.30;99.90;;;;;;5028696;28;20053;-87
2023/02/07 00:20:24;;;;;;;18.13;6.75;;;0.40;99.90;;;;;;5026785;28;20515;-87
2023/02/07 00:22:49;;;;;;;23.90;7.28;;;0.50;99.90;;;;;;5032508;28;20037;-87
2023/02/07 00:25:15;;;;;;;22.70;7.03;;;0.50;99.90;;;;;;5030093;28;20056;-87
2023/02/07 00:27:41;;;;;;;23.27;8.52;;;0.60;99.90;;;;;;5030348;28;20025;-87
2023/02/07 00:30:07;;;;;;;25.00;8.07;;;0.60;99.90;;;;;;5021743;28;20030;-87
2023/02/07 00:32:33;;;;;;;24.85;7.28;;;0.60;99.90;;;;;;5023006;28;20061;-87
2023/02/07 00:34:59;;;;;;;27.10;7.13;;;0.50;99.90;;;;;;5022201;28;20080;-87
2023/02/07 00:37:25;;;;;;;24.10;8.30;;;0.50;99.90;;;;;;5027283;28;20029;-87
2023/02/07 00:39:51;;;;;;;21.08;6.93;;;0.40;99.90;;;;;;5032038;28;20123;-87
2023/02/07 00:42:16;;;;;;;19.55;5.63;;;0.30;99.90;;;;;;5022813;28;20044;-87
2023/02/07 00:44:42;;;;;;;22.23;7.55;;;0.20;99.90;;;;;;5023206;28;20021;-87
2023/02/07 00:47:07;;;;;;;19.77;6.97;;;0.20;99.90;;;;;;5033153;28;20037;-87
2023/02/07 00:49:33;;;;;;;24.67;8.27;;;0.20;99.90;;;;;;5024320;28;20033;-87
2023/02/07 00:51:58;;;;;;;19.40;6.18;;;0.10;99.90;;;;;;5028908;28;20026;-87
2023/02/07 00:54:24;;;;;;;22.00;6.38;;;0.10;99.90;;;;;;5021791;28;20393;-87
2023/02/07 00:56:50;;;;;;;20.83;6.95;;;-0.10;99.90;;;;;;5027936;28;20049;-88
2023/02/07 00:59:15;;;;;;;19.98;6.30;;;-0.10;99.90;;;;;;5017482;28;20022;-87
2023/02/07 01:01:41;;;;;;;15.80;5.85;;;-0.20;99.90;;;;;;5031583;28;20036;-87
2023/02/07 01:04:06;;;;;;;21.95;8.07;;;-0.20;99.90;;;;;;5030342;28;20071;-87
2023/02/07 01:06:34;;;;;;;34.42;8.60;;;-0.20;99.90;;;;;;5029194;28;20046;-87
2023/02/07 01:09:02;;;;;;;33.35;10.07;;;-0.20;99.90;;;;;;5031350;28;20025;-87
2023/02/07 01:11:28;;;;;;;35.05;11.10;;;-0.20;99.90;;;;;;5024886;28;20113;-87
2023/02/07 01:13:54;;;;;;;42.33;10.93;;;-0.20;99.90;;;;;;5027789;28;20481;-87
2023/02/07 01:16:26;;;;;;;40.83;12.02;;;-0.10;99.90;;;;;;5016611;28;20030;-87
2023/02/07 01:18:51;;;;;;;29.58;9.57;;;-0.20;99.90;;;;;;5024134;28;20102;-88
2023/02/07 01:21:19;;;;;;;31.08;11.10;;;-0.10;99.90;;;;;;5025974;28;20061;-87
2023/02/07 01:23:45;;;;;;;26.98;10.32;;;-0.10;99.90;;;;;;5028932;28;20183;-87
2023/02/07 01:26:11;;;;;;;33.42;10.57;;;0.00;99.90;;;;;;5032103;28;20056;-87
2023/02/07 01:28:37;;;;;;;36.58;10.20;;;0.00;99.90;;;;;;5031671;28;20032;-87
2023/02/07 01:31:11;;;;;;;35.17;10.77;;;-0.10;99.90;;;;;;5032390;28;20032;-87
2023/02/07 01:33:37;;;;;;;30.25;11.23;;;-0.10;99.90;;;;;;5018829;28;20515;-86
2023/02/07 01:36:07;;;;;;;29.67;9.55;;;-0.10;99.90;;;;;;5029262;28;20029;-87
2023/02/07 01:38:33;;;;;;;33.40;10.88;;;-0.30;99.90;;;;;;5030651;28;20489;-87
2023/02/07 01:40:59;;;;;;;35.25;10.95;;;-0.30;99.90;;;;;;5031002;28;20091;-87
2023/02/07 01:43:25;;;;;;;31.77;10.82;;;-0.40;99.90;;;;;;5030112;28;20476;-86
2023/02/07 01:45:50;;;;;;;31.92;10.60;;;-0.40;99.90;;;;;;5030040;28;20099;-86
2023/02/07 01:48:22;;;;;;;30.60;10.43;;;-0.40;99.90;;;;;;5033874;28;20033;-87
2023/02/07 01:50:49;;;;;;;40.13;11.77;;;-0.40;99.90;;;;;;5034507;28;20504;-87
2023/02/07 01:53:18;;;;;;;30.20;12.18;;;-0.40;99.90;;;;;;5031272;28;20057;-86
2023/02/07 01:55:45;;;;;;;37.35;12.25;;;-0.50;99.90;;;;;;5033202;28;20044;-86
2023/02/07 01:58:10;;;;;;;44.13;12.65;;;-0.40;99.90;;;;;;5035244;28;20032;-86
2023/02/07 02:00:36;;;;;;;40.00;11.40;;;-0.50;99.90;;;;;;5025138;28;20030;-86
2023/02/07 02:03:03;;;;;;;34.22;11.75;;;-0.50;99.90;;;;;;5034331;28;20036;-86
2023/02/07 02:05:31;;;;;;;35.53;12.20;;;-0.50;99.90;;;;;;5033404;28;20029;-86
2023/02/07 02:07:56;;;;;;;41.55;11.50;;;-0.60;99.90;;;;;;5026820;28;20588;-86
2023/02/07 02:10:27;;;;;;;40.70;13.52;;;-0.60;99.90;;;;;;5015845;28;20032;-86
2023/02/07 02:13:29;;;;;;;46.72;12.30;;;-0.70;99.90;;;;;;5034468;28;20033;-86
2023/02/07 02:16:04;;;;;;;44.47;12.27;;;-0.60;99.90;;;;;;5014800;28;20025;-85
2023/02/07 02:18:45;;;;;;;36.35;11.48;;;-0.70;99.90;;;;;;5023316;28;20038;-86
2023/02/07 02:21:35;;;;;;;50.38;12.45;;;-0.70;99.90;;;;;;5022954;28;20021;-86
2023/02/07 02:24:39;;;;;;;36.53;13.50;;;-0.70;99.90;;;;;;5033623;28;20064;-86
2023/02/07 02:27:38;;;;;;;36.00;12.88;;;-0.70;99.90;;;;;;5031550;28;20037;-85
2023/02/07 02:30:34;;;;;;;42.85;13.85;;;-0.70;99.90;;;;;;5030612;28;20029;-86
2023/02/07 02:33:38;;;;;;;31.67;12.77;;;-0.80;99.90;;;;;;5033967;28;20116;-86
2023/02/07 02:36:21;;;;;;;33.83;12.18;;;-0.80;99.90;;;;;;5022927;28;20037;-86
2023/02/07 02:39:23;;;;;;;43.60;13.05;;;-0.90;99.90;;;;;;5029433;28;20059;-86
2023/02/07 02:42:08;;;;;;;34.53;11.82;;;-0.90;99.90;;;;;;5033116;28;20148;-86
2023/02/07 02:44:44;;;;;;;45.42;12.55;;;-0.90;99.90;;;;;;5027469;28;20474;-86
2023/02/07 02:47:10;;;;;;;38.72;13.15;;;-1.00;99.90;;;;;;5033392;28;20068;-86
2023/02/07 02:49:37;;;;;;;45.53;13.43;;;-1.00;99.90;;;;;;5033398;28;20026;-85
2023/02/07 02:52:03;;;;;;;27.88;10.15;;;-1.00;99.90;;;;;;5032524;28;20025;-86
2023/02/07 02:54:37;;;;;;;39.83;10.63;;;-1.10;99.90;;;;;;5032554;28;20043;-86
2023/02/07 02:57:11;;;;;;;30.25;11.75;;;-1.10;99.90;;;;;;5017279;28;20018;-86
2023/02/07 03:00:11;;;;;;;28.98;10.70;;;-1.20;99.90;;;;;;5033397;28;20045;-86
2023/02/07 03:03:16;;;;;;;24.90;9.95;;;-1.20;99.90;;;;;;5027064;28;20025;-86
2023/02/07 03:06:13;;;;;;;19.40;7.85;;;-1.20;99.90;;;;;;5028243;28;20508;-86
2023/02/07 03:09:05;;;;;;;19.67;8.05;;;-1.20;99.90;;;;;;4969034;28;20611;-86
2023/02/07 03:11:43;;;;;;;35.17;8.98;;;-1.30;99.90;;;;;;5023924;28;20385;-86
2023/02/07 03:14:41;;;;;;;29.95;10.18;;;-1.30;99.90;;;;;;5025863;28;20037;-86
2023/02/07 03:17:17;;;;;;;32.42;11.38;;;-1.30;99.90;;;;;;5031509;28;20384;-86
2023/02/07 03:19:48;;;;;;;35.08;11.88;;;-1.30;99.90;;;;;;5024473;28;20460;-85
2023/02/07 03:22:18;;;;;;;31.17;10.17;;;-1.30;99.90;;;;;;5031327;28;20057;-86
2023/02/07 03:24:47;;;;;;;25.65;9.63;;;-1.30;99.90;;;;;;5029856;28;20045;-86
2023/02/07 03:27:15;;;;;;;23.85;7.95;;;-1.30;99.90;;;;;;5017506;28;20072;-87
2023/02/07 03:29:45;;;;;;;15.57;7.05;;;-1.30;99.90;;;;;;5032713;28;20037;-86
2023/02/07 03:32:13;;;;;;;20.77;8.57;;;-1.30;99.90;;;;;;5033053;28;20030;-86
2023/02/07 03:35:08;;;;;;;24.48;8.13;;;-1.40;99.90;;;;;;5026195;28;20035;-86
2023/02/07 03:37:38;;;;;;;24.50;8.40;;;-1.50;99.90;;;;;;5026718;28;20432;-86
2023/02/07 03:40:05;;;;;;;45.17;15.32;;;-1.50;99.90;;;;;;5031935;28;20033;-86
2023/02/07 03:42:42;;;;;;;19.05;9.57;;;-1.60;99.90;;;;;;5031687;28;20021;-86
2023/02/07 03:45:15;;;;;;;28.38;9.77;;;-1.60;99.90;;;;;;5032155;28;20054;-86
2023/02/07 03:47:40;;;;;;;24.02;10.13;;;-1.60;99.90;;;;;;5032837;28;20060;-86
2023/02/07 03:50:06;;;;;;;31.23;11.30;;;-1.60;99.90;;;;;;5028653;28;20029;-86
2023/02/07 03:52:32;;;;;;;29.55;12.50;;;-1.60;99.90;;;;;;5032263;28;20029;-86
2023/02/07 03:54:57;;;;;;;29.52;13.25;;;-1.60;99.90;;;;;;5032205;28;20588;-86
2023/02/07 03:57:23;;;;;;;31.65;11.90;;;-1.60;99.90;;;;;;5029977;28;20034;-86
2023/02/07 03:59:50;;;;;;;29.98;12.55;;;-1.60;99.90;;;;;;5046985;28;20025;-86
2023/02/07 04:02:15;;;;;;;34.90;13.40;;;-1.60;99.90;;;;;;5032814;28;20051;-86
2023/02/07 04:04:41;;;;;;;49.83;16.17;;;-1.60;99.90;;;;;;5032301;28;20112;-86
2023/02/07 04:07:06;;;;;;;45.30;14.95;;;-1.60;99.90;;;;;;5020828;28;20089;-86
2023/02/07 04:09:32;;;;;;;51.58;17.42;;;-1.50;99.90;;;;;;5026377;28;20040;-86
2023/02/07 04:11:57;;;;;;;54.58;17.65;;;-1.40;99.90;;;;;;5031624;28;20354;-86
2023/02/07 04:14:23;;;;;;;53.00;18.30;;;-1.40;99.90;;;;;;5031310;28;20021;-86
2023/02/07 04:16:48;;;;;;;56.65;20.98;;;-1.30;99.90;;;;;;5026424;28;20072;-86
2023/02/07 04:19:15;;;;;;;48.42;18.02;;;-1.30;99.90;;;;;;5019321;28;20037;-86
2023/02/07 04:21:41;;;;;;;67.15;19.80;;;-1.30;99.90;;;;;;5013142;28;20121;-86
2023/02/07 04:24:06;;;;;;;63.20;21.20;;;-1.30;99.90;;;;;;5021342;28;20025;-86
2023/02/07 04:26:32;;;;;;;62.03;19.90;;;-1.20;99.90;;;;;;5031793;28;20079;-85
2023/02/07 04:28:58;;;;;;;53.40;18.40;;;-1.20;99.90;;;;;;5032183;28;20036;-86
2023/02/07 04:31:23;;;;;;;60.22;19.95;;;-1.20;99.90;;;;;;5032173;28;20486;-86
2023/02/07 04:33:49;;;;;;;56.80;18.92;;;-1.20;99.90;;;;;;5029403;28;20034;-85
2023/02/07 04:36:14;;;;;;;45.47;18.15;;;-1.20;99.90;;;;;;5025857;28;20079;-85
2023/02/07 04:38:40;;;;;;;64.75;20.23;;;-1.20;99.90;;;;;;5031544;28;20385;-85
2023/02/07 04:41:06;;;;;;;54.88;19.73;;;-1.20;99.90;;;;;;5031531;28;20039;-85
2023/02/07 04:43:33;;;;;;;57.90;19.48;;;-1.20;99.90;;;;;;5022056;28;20417;-85
2023/02/07 04:45:59;;;;;;;59.95;19.65;;;-1.20;99.90;;;;;;5030534;28;20036;-85
2023/02/07 04:48:25;;;;;;;62.00;22.05;;;-1.20;99.90;;;;;;5030472;28;20076;-85
2023/02/07 04:50:50;;;;;;;52.25;18.75;;;-1.20;99.90;;;;;;5030703;28;20037;-85
2023/02/07 04:53:16;;;;;;;66.85;20.83;;;-1.30;99.90;;;;;;5014716;28;20030;-85
2023/02/07 04:55:41;;;;;;;52.50;19.27;;;-1.30;99.90;;;;;;5031818;28;20043;-84
2023/02/07 04:58:07;;;;;;;71.15;22.25;;;-1.30;99.90;;;;;;5031945;28;20033;-85
2023/02/07 05:00:33;;;;;;;64.30;21.73;;;-1.40;99.90;;;;;;5031981;28;20466;-85
2023/02/07 05:02:59;;;;;;;66.75;23.42;;;-1.30;99.90;;;;;;5027886;28;20030;-85
2023/02/07 05:05:24;;;;;;;62.35;22.42;;;-1.30;99.90;;;;;;5028578;28;20034;-84
2023/02/07 05:07:50;;;;;;;68.35;22.27;;;-1.30;99.90;;;;;;5029757;28;20485;-85
2023/02/07 05:10:16;;;;;;;68.60;21.67;;;-1.30;99.90;;;;;;5018379;28;20029;-85
2023/02/07 05:12:41;;;;;;;64.47;20.92;;;-1.30;99.90;;;;;;5030325;28;20370;-84
2023/02/07 05:15:08;;;;;;;58.38;20.95;;;-1.40;99.90;;;;;;5028320;28;20049;-84
2023/02/07 05:17:34;;;;;;;61.90;19.77;;;-1.40;99.90;;;;;;5031451;28;20135;-85
2023/02/07 05:20:00;;;;;;;59.08;19.98;;;-1.40;99.90;;;;;;5031777;28;20069;-84
2023/02/07 05:22:26;;;;;;;67.97;21.02;;;-1.40;99.90;;;;;;5031056;28;20121;-84
2023/02/07 05:24:52;;;;;;;67.93;21.85;;;-1.50;99.90;;;;;;5033548;28;20041;-84
2023/02/07 05:27:17;;;;;;;65.40;22.77;;;-1.50;99.90;;;;;;5033909;28;20045;-84
2023/02/07 05:29:43;;;;;;;61.42;19.02;;;-1.50;99.90;;;;;;5034762;28;20485;-84
2023/02/07 05:34:56;;;;;;;57.60;17.75;;;-1.70;99.90;;;;;;5028771;28;20087;-84
2023/02/07 05:37:22;;;;;;;54.25;17.05;;;-1.70;99.90;;;;;;5014908;28;20026;-85
2023/02/07 05:39:47;;;;;;;63.88;21.83;;;-1.80;99.90;;;;;;5034365;28;20083;-84
2023/02/07 05:42:13;;;;;;;52.28;18.20;;;-1.90;99.90;;;;;;5034789;28;20444;-84
2023/02/07 05:44:38;;;;;;;54.08;18.33;;;-1.90;99.90;;;;;;5025671;28;20104;-84
2023/02/07 05:47:04;;;;;;;52.17;18.42;;;-2.00;99.90;;;;;;5020968;28;20561;-83
2023/02/07 05:49:30;;;;;;;60.92;21.25;;;-2.00;99.90;;;;;;5026824;28;20109;-83
2023/02/07 05:51:55;;;;;;;55.55;18.02;;;-2.00;99.90;;;;;;5035403;28;20029;-84
2023/02/07 05:54:21;;;;;;;64.20;19.33;;;-2.10;99.90;;;;;;5030982;28;20052;-84
2023/02/07 05:56:46;;;;;;;57.75;19.08;;;-2.10;99.90;;;;;;5030187;28;20049;-83
2023/02/07 05:59:12;;;;;;;55.20;19.77;;;-2.10;99.90;;;;;;5033885;28;20029;-84
2023/02/07 06:01:37;;;;;;;70.97;21.95;;;-2.20;99.90;;;;;;5035551;28;20066;-84
2023/02/07 06:04:03;;;;;;;70.80;21.02;;;-2.10;99.90;;;;;;5034138;28;20021;-84
2023/02/07 06:06:29;;;;;;;73.88;22.45;;;-2.10;99.90;;;;;;5034356;28;20037;-84
2023/02/07 06:08:54;;;;;;;51.20;19.23;;;-2.10;99.90;;;;;;5033052;28;20029;-84
2023/02/07 06:11:20;;;;;;;64.93;20.45;;;-2.00;99.90;;;;;;5023832;28;20098;-84
2023/02/07 06:13:45;;;;;;;56.95;17.80;;;-1.80;99.90;;;;;;5015937;28;20065;-84
2023/02/07 06:16:11;;;;;;;79.68;25.35;;;-1.70;99.90;;;;;;5034290;28;20025;-84
2023/02/07 06:18:37;;;;;;;71.32;25.75;;;-1.60;99.90;;;;;;5034195;28;20108;-84
2023/02/07 06:21:03;;;;;;;61.88;19.40;;;-1.60;99.90;;;;;;5034219;28;20495;-84
2023/02/07 06:23:29;;;;;;;110.50;22.92;;;-1.50;99.90;;;;;;5033241;28;20661;-84
2023/02/07 06:25:54;;;;;;;62.65;20.52;;;-1.50;99.90;;;;;;5025202;28;20049;-84
2023/02/07 06:28:20;;;;;;;61.47;19.73;;;-1.60;99.90;;;;;;5048303;28;20507;-84
2023/02/07 06:30:45;;;;;;;62.33;19.15;;;-1.60;99.90;;;;;;5046201;28;20097;-85
2023/02/07 06:33:11;;;;;;;76.85;23.40;;;-1.70;99.90;;;;;;5031903;28;20120;-85
2023/02/07 06:35:37;;;;;;;66.75;21.67;;;-1.80;99.90;;;;;;5032008;28;20022;-85
2023/02/07 06:38:02;;;;;;;92.32;24.77;;;-1.80;99.90;;;;;;5035310;28;20034;-85
2023/02/07 06:40:28;;;;;;;108.03;24.02;;;-1.80;99.90;;;;;;5031476;28;20032;-86
2023/02/07 06:42:54;;;;;;;75.30;21.00;;;-1.90;99.90;;;;;;5026188;28;20033;-86
2023/02/07 06:45:19;;;;;;;107.00;22.80;;;-2.00;99.90;;;;;;5031610;28;20099;-86
2023/02/07 06:47:45;;;;;;;87.93;18.95;;;-2.10;99.90;;;;;;5029966;28;20112;-87
2023/02/07 06:50:10;;;;;;;133.32;22.48;;;-2.20;99.90;;;;;;5039965;28;20022;-87
2023/02/07 06:52:36;;;;;;;114.72;20.73;;;-2.30;99.90;;;;;;5033240;28;20013;-86
2023/02/07 06:55:02;;;;;;;116.13;21.13;;;-2.30;99.90;;;;;;5034488;28;20041;-86
2023/02/07 06:57:27;;;;;;;106.25;23.17;;;-2.40;99.90;;;;;;5035892;28;20021;-86
2023/02/07 06:59:53;;;;;;;78.45;19.65;;;-2.40;99.90;;;;;;5036532;28;20039;-86
2023/02/07 07:02:18;;;;;;;82.10;22.45;;;-2.40;99.90;;;;;;5035734;28;20025;-86
2023/02/07 07:04:44;;;;;;;89.07;20.98;;;-2.50;99.90;;;;;;5033734;28;20079;-86
2023/02/07 07:07:10;;;;;;;89.47;20.20;;;-2.40;99.90;;;;;;5035362;28;20067;-86
2023/02/07 07:09:35;;;;;;;74.40;18.08;;;-2.50;99.90;;;;;;5034843;28;20029;-86
2023/02/07 07:12:01;;;;;;;75.45;18.17;;;-2.50;99.90;;;;;;5033155;28;20021;-86
2023/02/07 07:14:26;;;;;;;89.53;19.52;;;-2.50;99.90;;;;;;5035069;28;20026;-86
2023/02/07 07:16:52;;;;;;;115.60;20.33;;;-2.50;99.90;;;;;;5031709;28;20029;-87
2023/02/07 07:19:17;;;;;;;60.22;19.20;;;-2.50;99.90;;;;;;5028071;28;20042;-87
2023/02/07 07:21:43;;;;;;;107.78;22.52;;;-2.50;99.90;;;;;;5033829;28;20091;-87
2023/02/07 07:24:08;;;;;;;123.07;24.40;;;-2.50;99.90;;;;;;5032889;28;20060;-87
2023/02/07 07:26:37;;;;;;;121.88;21.15;;;-2.40;99.90;;;;;;5033282;28;20878;-87
2023/02/07 07:29:03;;;;;;;98.13;23.08;;;-2.40;99.90;;;;;;5039159;28;20076;-87
2023/02/07 07:31:29;;;;;;;82.40;18.88;;;-2.30;99.90;;;;;;5032394;28;20057;-87
2023/02/07 07:33:55;;;;;;;105.57;19.08;;;-2.30;99.90;;;;;;5033659;28;20044;-87
2023/02/07 07:36:21;;;;;;;101.00;21.58;;;-2.30;99.90;;;;;;5027724;28;20492;-86
2023/02/07 07:38:46;;;;;;;101.68;23.08;;;-2.20;99.90;;;;;;5026492;28;20045;-87
2023/02/07 07:41:12;;;;;;;94.13;21.45;;;-2.20;99.90;;;;;;5032056;28;20025;-87
2023/02/07 07:43:38;;;;;;;94.35;20.85;;;-2.20;99.90;;;;;;5029287;28;20034;-86
2023/02/07 07:46:06;;;;;;;150.70;25.70;;;-2.20;99.90;;;;;;5024070;28;20136;-87
2023/02/07 07:48:32;;;;;;;148.85;21.25;;;-2.10;99.90;;;;;;5032506;28;20040;-87
2023/02/07 07:50:57;;;;;;;114.32;24.92;;;-2.10;99.90;;;;;;5034706;28;20029;-87
2023/02/07 07:53:23;;;;;;;83.80;22.42;;;-2.10;99.90;;;;;;5026054;28;20069;-87
2023/02/07 07:55:51;;;;;;;92.13;23.92;;;-2.10;99.90;;;;;;5028320;28;20477;-87
2023/02/07 07:58:18;;;;;;;81.25;21.00;;;-2.10;99.90;;;;;;5033205;28;20025;-87
2023/02/07 08:00:43;;;;;;;45.95;15.77;;;-2.10;99.90;;;;;;5025651;28;20034;-88
2023/02/07 08:03:10;;;;;;;77.78;20.45;;;-2.10;99.90;;;;;;5021286;28;20103;-87
2023/02/07 08:05:35;;;;;;;118.40;23.30;;;-2.10;99.90;;;;;;5034243;28;20079;-87
2023/02/07 08:08:01;;;;;;;62.17;19.95;;;-2.10;99.90;;;;;;5035309;28;20029;-88
2023/02/07 08:10:27;;;;;;;74.07;22.15;;;-2.10;99.90;;;;;;5035729;28;20474;-87
2023/02/07 08:12:52;;;;;;;71.53;19.98;;;-2.00;99.90;;;;;;5034185;28;20037;-87
2023/02/07 08:15:18;;;;;;;69.10;22.35;;;-2.00;99.90;;;;;;5032710;28;20514;-88
2023/02/07 08:17:43;;;;;;;79.93;23.65;;;-1.90;99.90;;;;;;5029246;28;20026;-87
2023/02/07 08:20:11;;;;;;;80.93;24.38;;;-1.90;99.90;;;;;;5029486;28;20487;-88
2023/02/07 08:22:37;;;;;;;70.60;22.85;;;-1.90;99.90;;;;;;5030826;28;20029;-86
2023/02/07 08:25:03;;;;;;;71.63;21.20;;;-1.80;99.90;;;;;;5034087;28;20444;-87
2023/02/07 08:27:28;;;;;;;79.55;23.15;;;-1.70;99.90;;;;;;5034328;28;20037;-87
2023/02/07 08:29:54;;;;;;;108.35;24.92;;;-1.70;99.90;;;;;;5030931;28;20029;-87
2023/02/07 08:32:19;;;;;;;71.57;23.35;;;-1.60;99.90;;;;;;5012860;28;20041;-87
2023/02/07 08:34:45;;;;;;;84.03;24.73;;;-1.60;99.90;;;;;;5023732;28;20080;-87
2023/02/07 08:37:11;;;;;;;77.50;23.75;;;-1.60;99.90;;;;;;5041501;28;20447;-88
2023/02/07 08:39:36;;;;;;;67.03;23.50;;;-1.70;99.90;;;;;;5022016;28;20465;-87
2023/02/07 08:42:04;;;;;;;87.45;26.58;;;-1.60;99.90;;;;;;5017743;28;20018;-87
2023/02/07 08:44:31;;;;;;;75.45;24.92;;;-1.60;99.90;;;;;;5032944;28;20517;-87
2023/02/07 08:46:56;;;;;;;81.43;26.52;;;-1.50;99.90;;;;;;5029039;28;20054;-87
2023/02/07 08:49:22;;;;;;;73.95;25.23;;;-1.50;99.90;;;;;;5030712;28;20029;-87
2023/02/07 08:51:47;;;;;;;80.38;26.85;;;-1.40;99.90;;;;;;5031896;28;20075;-85
2023/02/07 08:54:13;;;;;;;81.47;27.35;;;-1.30;99.90;;;;;;5053374;28;20075;-86
2023/02/07 08:56:38;;;;;;;87.63;28.65;;;-1.20;99.90;;;;;;5031697;28;20037;-86
2023/02/07 08:59:04;;;;;;;87.70;27.08;;;-1.10;99.90;;;;;;5031356;28;20026;-86
2023/02/07 09:01:29;;;;;;;89.35;28.67;;;-1.00;99.90;;;;;;5030630;28;20120;-86
2023/02/07 09:03:55;;;;;;;91.90;28.55;;;-0.90;99.90;;;;;;5020787;28;20505;-87
2023/02/07 09:06:22;;;;;;;79.65;29.20;;;-0.70;99.90;;;;;;5034920;28;20500;-85
2023/02/07 09:08:48;;;;;;;67.53;24.25;;;-0.60;99.90;;;;;;5027956;28;20018;-85
2023/02/07 09:11:14;;;;;;;84.90;30.00;;;-0.50;99.90;;;;;;5013736;28;20497;-85
2023/02/07 09:13:41;;;;;;;75.40;27.77;;;-0.50;99.90;;;;;;5015208;28;20031;-85
2023/02/07 09:16:06;;;;;;;77.00;28.33;;;-0.40;99.90;;;;;;5026464;28;20040;-84
2023/02/07 09:18:33;;;;;;;77.22;27.05;;;-0.30;99.90;;;;;;5034650;28;20073;-85
2023/02/07 09:20:59;;;;;;;74.70;26.60;;;-0.30;99.90;;;;;;5023234;28;20038;-85
2023/02/07 09:23:24;;;;;;;73.03;27.35;;;-0.20;99.90;;;;;;5030119;28;20049;-85
2023/02/07 09:25:51;;;;;;;74.00;27.77;;;-0.10;99.90;;;;;;5033822;28;20076;-85
2023/02/07 09:28:19;;;;;;;78.07;27.85;;;-0.10;99.90;;;;;;5026515;28;20054;-85
2023/02/07 09:30:46;;;;;;;73.13;27.33;;;0.10;99.90;;;;;;5023080;28;20018;-85
2023/02/07 09:33:12;;;;;;;71.93;29.00;;;0.10;99.90;;;;;;5036290;28;20030;-85
2023/02/07 09:35:41;;;;;;;74.57;25.85;;;0.20;99.90;;;;;;5026948;28;20022;-85
2023/02/07 09:38:08;;;;;;;74.97;28.45;;;0.30;99.90;;;;;;5032445;28;20131;-85
2023/02/07 09:40:34;;;;;;;53.05;21.98;;;0.30;99.90;;;;;;5028465;28;20385;-85
2023/02/07 09:43:34;;;;;;;60.50;22.60;;;0.40;99.90;;;;;;5029159;28;20036;-85
2023/02/07 09:46:04;;;;;;;67.63;24.27;;;0.60;99.90;;;;;;5014043;28;20073;-85
2023/02/07 09:48:50;;;;;;;60.40;22.45;;;0.70;99.90;;;;;;5018628;28;20018;-85
2023/02/07 09:51:19;;;;;;;56.10;22.98;;;0.80;99.90;;;;;;5027852;28;20029;-85
2023/02/07 09:54:00;;;;;;;55.70;22.35;;;0.90;99.90;;;;;;5033109;28;20370;-86
2023/02/07 09:56:28;;;;;;;51.65;20.33;;;1.10;99.90;;;;;;5028374;28;20025;-84
2023/02/07 09:59:25;;;;;;;48.95;20.17;;;1.10;99.90;;;;;;5027818;28;20030;-85
2023/02/07 10:01:59;;;;;;;40.03;17.38;;;1.20;99.90;;;;;;5022041;28;20478;-86
2023/02/07 10:04:34;;;;;;;40.15;17.77;;;1.30;99.90;;;;;;5030220;28;20032;-85
2023/02/07 10:07:03;;;;;;;38.92;16.30;;;1.40;99.90;;;;;;5030979;28;20037;-86
2023/02/07 10:09:36;;;;;;;38.92;16.85;;;1.50;99.90;;;;;;5022480;28;20025;-85
2023/02/07 10:12:07;;;;;;;41.00;18.90;;;1.50;99.90;;;;;;5021081;28;20030;-86
2023/02/07 10:14:36;;;;;;;39.80;17.75;;;1.60;99.90;;;;;;5035111;28;20049;-85
2023/02/07 10:17:27;;;;;;;35.95;16.35;;;1.70;99.90;;;;;;5025825;28;20033;-86
2023/02/07 10:20:01;;;;;;;31.08;15.65;;;1.80;99.90;;;;;;5022346;28;20109;-86
2023/02/07 10:22:50;;;;;;;36.58;16.52;;;1.90;99.90;;;;;;5023078;28;20029;-85
2023/02/07 10:25:39;;;;;;;33.47;15.02;;;2.00;99.90;;;;;;5024563;28;20056;-85
2023/02/07 10:28:13;;;;;;;30.98;14.27;;;2.00;99.90;;;;;;5013439;28;20045;-86
2023/02/07 10:30:53;;;;;;;29.88;13.82;;;2.10;99.90;;;;;;5035807;28;20021;-86
2023/02/07 10:33:27;;;;;;;31.38;13.40;;;2.30;99.90;;;;;;5048679;28;20127;-85
2023/02/07 10:35:54;;;;;;;30.98;13.43;;;2.30;99.90;;;;;;5017639;28;20116;-86
2023/02/07 10:38:52;;;;;;;26.92;12.40;;;2.40;99.90;;;;;;5032697;28;20033;-86
2023/02/07 10:41:36;;;;;;;28.85;12.57;;;2.50;99.90;;;;;;5029193;28;20029;-85
2023/02/07 10:44:04;;;;;;;27.55;12.15;;;2.50;99.90;;;;;;5035185;28;20026;-86
2023/02/07 10:46:30;;;;;;;29.88;12.13;;;2.50;99.90;;;;;;5018350;28;20041;-86
2023/02/07 10:48:56;;;;;;;27.42;12.02;;;2.60;99.90;;;;;;5024157;28;20116;-85
2023/02/07 10:51:36;;;;;;;26.90;11.82;;;2.60;99.90;;;;;;5032741;28;20126;-86
2023/02/07 10:54:09;;;;;;;24.15;11.02;;;2.60;99.90;;;;;;5035552;28;20057;-85
2023/02/07 10:56:46;;;;;;;25.15;11.88;;;2.70;99.90;;;;;;5031028;28;20053;-86
2023/02/07 10:59:30;;;;;;;24.70;10.63;;;2.80;99.90;;;;;;5032047;28;20021;-86
2023/02/07 11:01:56;;;;;;;25.52;11.07;;;2.80;99.90;;;;;;5032338;28;20064;-85
2023/02/07 11:04:31;;;;;;;25.25;12.50;;;2.80;99.90;;;;;;5031802;28;20026;-86
2023/02/07 11:07:04;;;;;;;27.23;12.63;;;2.80;99.90;;;;;;5018089;28;20042;-86
2023/02/07 11:09:31;;;;;;;23.20;11.43;;;2.90;99.90;;;;;;5035115;28;20148;-86
2023/02/07 11:11:57;;;;;;;24.08;10.25;;;2.90;99.90;;;;;;5027752;28;20036;-87
2023/02/07 11:14:25;;;;;;;20.52;10.30;;;2.90;99.90;;;;;;5034974;28;20037;-86
2023/02/07 11:17:00;;;;;;;26.73;10.27;;;3.00;99.90;;;;;;5035392;28;20025;-87
2023/02/07 11:19:28;;;;;;;19.95;9.63;;;3.00;99.90;;;;;;5029775;28;20037;-86
2023/02/07 11:22:07;;;;;;;23.83;11.15;;;3.00;99.90;;;;;;5025472;28;20113;-86
2023/02/07 11:24:35;;;;;;;21.45;8.80;;;3.10;99.90;;;;;;5031311;28;20134;-87
2023/02/07 11:27:14;;;;;;;20.50;9.70;;;3.10;99.90;;;;;;5029731;28;20065;-87
2023/02/07 11:30:03;;;;;;;23.90;10.25;;;3.10;99.90;;;;;;5033063;28;20029;-87
2023/02/07 11:32:30;;;;;;;18.50;9.00;;;3.20;99.90;;;;;;5031992;28;20485;-86
2023/02/07 11:35:04;;;;;;;20.60;9.35;;;3.30;99.90;;;;;;5025928;28;20069;-86
2023/02/07 11:37:34;;;;;;;20.00;9.50;;;3.30;99.90;;;;;;5035461;28;20051;-86
2023/02/07 11:40:20;;;;;;;20.75;9.25;;;3.40;99.90;;;;;;5035346;28;20017;-86
2023/02/07 11:43:05;;;;;;;21.70;9.63;;;3.40;99.90;;;;;;5038693;28;20101;-88
2023/02/07 11:45:36;;;;;;;19.77;9.48;;;3.40;99.90;;;;;;5037917;28;20022;-88
2023/02/07 11:48:03;;;;;;;25.35;10.20;;;3.40;99.90;;;;;;5029950;28;20478;-88
2023/02/07 11:50:38;;;;;;;18.88;9.70;;;3.50;99.90;;;;;;5032573;28;20095;-88
2023/02/07 11:53:05;;;;;;;22.02;9.38;;;3.50;99.90;;;;;;5031005;28;20037;-88
2023/02/07 11:55:39;;;;;;;21.52;10.40;;;3.50;99.90;;;;;;5026832;28;20087;-88
2023/02/07 11:58:16;;;;;;;19.95;10.25;;;3.50;99.90;;;;;;5034116;28;20033;-86
2023/02/07 12:00:42;;;;;;;20.20;9.55;;;3.50;99.90;;;;;;5032810;28;20043;-87
2023/02/07 12:03:23;;;;;;;18.55;8.90;;;3.60;99.90;;;;;;5034091;28;20477;-88
2023/02/07 12:05:59;;;;;;;19.77;8.82;;;3.60;99.90;;;;;;5031848;28;20044;-88
2023/02/07 12:08:30;;;;;;;18.60;9.15;;;3.70;99.90;;;;;;5033750;28;20104;-88
2023/02/07 12:11:00;;;;;;;16.58;8.48;;;3.70;99.90;;;;;;5032886;28;20017;-88
2023/02/07 12:13:35;;;;;;;18.77;8.48;;;3.80;99.90;;;;;;5030731;28;20029;-88
2023/02/07 12:16:24;;;;;;;17.65;8.48;;;3.80;99.90;;;;;;5030539;28;20370;-88
2023/02/07 12:18:58;;;;;;;14.80;7.60;;;3.90;99.90;;;;;;5030970;28;20029;-87
2023/02/07 12:21:33;;;;;;;13.07;7.40;;;3.90;99.90;;;;;;5032172;28;20021;-88
2023/02/07 12:24:04;;;;;;;13.02;6.72;;;4.00;99.90;;;;;;5032695;28;20512;-88
2023/02/07 12:26:36;;;;;;;13.30;6.90;;;4.10;99.90;;;;;;5015198;28;20056;-88
2023/02/07 12:29:20;;;;;;;17.10;8.18;;;4.20;99.90;;;;;;5015234;28;20103;-88
2023/02/07 12:31:55;;;;;;;13.20;7.88;;;4.20;99.90;;;;;;5022015;28;20022;-88
2023/02/07 12:34:46;;;;;;;16.60;7.57;;;4.20;99.90;;;;;;5019473;28;20057;-87
2023/02/07 12:37:27;;;;;;;15.18;7.65;;;4.30;99.90;;;;;;5022425;28;20501;-87
2023/02/07 12:40:30;;;;;;;15.07;8.10;;;4.30;99.90;;;;;;5034217;28;20029;-87
2023/02/07 12:43:06;;;;;;;16.17;8.55;;;4.40;99.90;;;;;;5035290;28;20432;-87
2023/02/07 12:45:34;;;;;;;16.83;7.90;;;4.50;99.90;;;;;;5019575;28;20811;-88
2023/02/07 12:48:19;;;;;;;15.55;8.57;;;4.50;99.90;;;;;;5030120;28;20040;-87
2023/02/07 12:51:00;;;;;;;18.65;8.00;;;4.60;99.90;;;;;;5015344;28;20022;-88